createdAt,value
2018-12-18T00:00:51.242Z,-79
2018-12-18T00:01:51.209Z,-79
2018-12-18T00:02:51.369Z,-79
2018-12-18T00:03:51.251Z,-79
2018-12-18T00:04:51.199Z,-79
2018-12-18T00:05:51.288Z,-79
2018-12-18T00:06:51.275Z,-79
2018-12-18T00:07:51.282Z,-79
2018-12-18T00:08:51.211Z,-79
2018-12-18T00:09:51.291Z,-80
2018-12-18T00:10:51.204Z,-79
2018-12-18T00:11:51.435Z,-79
2018-12-18T00:12:51.224Z,-79
2018-12-18T00:13:51.291Z,-79
2018-12-18T00:14:51.435Z,-79
2018-12-18T00:15:51.652Z,-79
2018-12-18T00:16:51.484Z,-79
2018-12-18T00:17:51.632Z,-79
2018-12-18T00:18:51.210Z,-79
2018-12-18T00:19:51.494Z,-79
2018-12-18T00:20:51.307Z,-79
2018-12-18T00:21:51.348Z,-79
2018-12-18T00:22:51.256Z,-79
2018-12-18T00:23:51.414Z,-79
2018-12-18T00:24:51.576Z,-79
2018-12-18T00:25:51.178Z,-79
2018-12-18T00:26:51.356Z,-79
2018-12-18T00:27:51.343Z,-79
2018-12-18T00:28:51.175Z,-79
2018-12-18T00:29:51.543Z,-79
2018-12-18T00:30:51.334Z,-79
2018-12-18T00:31:51.372Z,-79
2018-12-18T00:32:51.144Z,-79
2018-12-18T00:33:51.261Z,-79
2018-12-18T00:34:51.368Z,-80
2018-12-18T00:35:51.252Z,-79
2018-12-18T00:36:51.996Z,-79
2018-12-18T00:37:51.453Z,-79
2018-12-18T00:38:51.289Z,-79
2018-12-18T00:39:51.974Z,-79
2018-12-18T00:40:51.515Z,-79
2018-12-18T00:41:51.307Z,-79
2018-12-18T00:42:51.387Z,-78
2018-12-18T00:43:51.496Z,-79
2018-12-18T00:44:51.516Z,-79
2018-12-18T00:45:51.504Z,-79
2018-12-18T00:46:51.416Z,-79
2018-12-18T00:47:51.589Z,-79
2018-12-18T00:48:51.326Z,-79
2018-12-18T00:49:51.228Z,-79
2018-12-18T00:50:51.324Z,-79
2018-12-18T00:51:51.334Z,-79
2018-12-18T00:52:51.467Z,-79
2018-12-18T00:53:51.210Z,-79
2018-12-18T00:54:51.189Z,-79
2018-12-18T00:55:51.112Z,-79
2018-12-18T00:56:51.180Z,-79
2018-12-18T00:57:51.341Z,-79
2018-12-18T00:58:51.189Z,-79
2018-12-18T00:59:51.387Z,-79
2018-12-18T01:00:51.106Z,-79
2018-12-18T01:01:51.266Z,-79
2018-12-18T01:02:51.173Z,-79
2018-12-18T01:03:53.386Z,-79
2018-12-18T01:04:51.200Z,-79
2018-12-18T01:05:51.271Z,-79
2018-12-18T01:06:51.503Z,-79
2018-12-18T01:07:53.918Z,-79
2018-12-18T01:08:51.193Z,-80
2018-12-18T01:09:51.286Z,-79
2018-12-18T01:10:51.224Z,-79
2018-12-18T01:11:51.238Z,-79
2018-12-18T01:12:51.853Z,-79
2018-12-18T01:13:51.267Z,-79
2018-12-18T01:14:51.128Z,-79
2018-12-18T01:15:51.236Z,-79
2018-12-18T01:16:51.306Z,-79
2018-12-18T01:17:51.974Z,-79
2018-12-18T01:18:51.709Z,-79
2018-12-18T01:19:51.184Z,-79
2018-12-18T01:20:51.230Z,-79
2018-12-18T01:21:51.185Z,-79
2018-12-18T01:22:51.166Z,-79
2018-12-18T01:23:51.103Z,-79
2018-12-18T01:24:51.278Z,-79
2018-12-18T01:25:51.162Z,-79
2018-12-18T01:26:51.205Z,-79
2018-12-18T01:27:51.174Z,-79
2018-12-18T01:28:51.203Z,-79
2018-12-18T01:29:51.174Z,-79
2018-12-18T01:30:51.158Z,-79
2018-12-18T01:31:51.181Z,-79
2018-12-18T01:32:51.233Z,-79
2018-12-18T01:33:51.203Z,-79
2018-12-18T01:34:51.165Z,-79
2018-12-18T01:35:51.034Z,-79
2018-12-18T01:36:51.182Z,-79
2018-12-18T01:37:51.232Z,-79
2018-12-18T01:38:51.192Z,-79
2018-12-18T01:39:51.176Z,-79
2018-12-18T01:40:51.180Z,-79
2018-12-18T01:41:51.032Z,-79
2018-12-18T01:42:51.104Z,-79
2018-12-18T01:43:51.231Z,-80
2018-12-18T01:44:51.071Z,-79
2018-12-18T01:45:51.244Z,-79
2018-12-18T01:46:51.135Z,-79
2018-12-18T01:47:51.061Z,-79
2018-12-18T01:48:51.334Z,-79
2018-12-18T01:49:51.198Z,-79
2018-12-18T01:50:51.303Z,-79
2018-12-18T01:51:51.239Z,-79
2018-12-18T01:52:51.107Z,-79
2018-12-18T01:53:51.182Z,-79
2018-12-18T01:54:51.282Z,-79
2018-12-18T01:55:51.365Z,-79
2018-12-18T01:56:51.012Z,-79
2018-12-18T01:57:51.179Z,-79
2018-12-18T01:58:51.027Z,-79
2018-12-18T01:59:51.110Z,-79
2018-12-18T02:00:51.237Z,-79
2018-12-18T02:01:51.017Z,-79
2018-12-18T02:02:51.891Z,-79
2018-12-18T02:03:51.063Z,-79
2018-12-18T02:04:51.302Z,-79
2018-12-18T02:05:51.301Z,-79
2018-12-18T02:06:50.999Z,-79
2018-12-18T02:07:51.421Z,-79
2018-12-18T02:08:51.103Z,-79
2018-12-18T02:09:51.275Z,-79
2018-12-18T02:10:51.214Z,-79
2018-12-18T02:11:51.314Z,-79
2018-12-18T02:12:51.042Z,-79
2018-12-18T02:13:51.065Z,-79
2018-12-18T02:14:51.017Z,-79
2018-12-18T02:15:51.041Z,-79
2018-12-18T02:16:51.235Z,-79
2018-12-18T02:17:51.252Z,-79
2018-12-18T02:18:51.297Z,-79
2018-12-18T02:19:51.398Z,-79
2018-12-18T02:20:51.267Z,-79
2018-12-18T02:21:51.188Z,-79
2018-12-18T02:22:51.271Z,-79
2018-12-18T02:23:50.987Z,-79
2018-12-18T02:24:51.469Z,-79
2018-12-18T02:25:51.146Z,-80
2018-12-18T02:26:51.009Z,-79
2018-12-18T02:27:51.253Z,-79
2018-12-18T02:28:51.172Z,-79
2018-12-18T02:29:51.355Z,-79
2018-12-18T02:30:51.179Z,-79
2018-12-18T02:31:51.363Z,-79
2018-12-18T02:32:51.027Z,-79
2018-12-18T02:33:51.131Z,-79
2018-12-18T02:34:51.082Z,-79
2018-12-18T02:35:51.105Z,-79
2018-12-18T02:36:51.222Z,-79
2018-12-18T02:37:51.165Z,-79
2018-12-18T02:38:51.221Z,-79
2018-12-18T02:39:51.501Z,-79
2018-12-18T02:40:51.021Z,-79
2018-12-18T02:41:51.294Z,-78
2018-12-18T02:42:51.330Z,-79
2018-12-18T02:43:51.433Z,-79
2018-12-18T02:44:50.985Z,-79
2018-12-18T02:45:51.796Z,-79
2018-12-18T02:46:51.085Z,-79
2018-12-18T02:47:51.797Z,-79
2018-12-18T02:48:51.187Z,-79
2018-12-18T02:49:51.125Z,-79
2018-12-18T02:50:51.319Z,-79
2018-12-18T02:51:51.001Z,-79
2018-12-18T02:52:51.150Z,-79
2018-12-18T02:53:51.297Z,-79
2018-12-18T02:54:50.940Z,-79
2018-12-18T02:55:51.252Z,-79
2018-12-18T02:56:50.949Z,-79
2018-12-18T02:57:51.060Z,-79
2018-12-18T02:58:50.964Z,-79
2018-12-18T02:59:51.073Z,-79
2018-12-18T03:00:50.990Z,-79
2018-12-18T03:01:51.333Z,-79
2018-12-18T03:02:51.016Z,-79
2018-12-18T03:03:50.973Z,-79
2018-12-18T03:04:51.149Z,-79
2018-12-18T03:05:51.000Z,-79
2018-12-18T03:06:50.951Z,-79
2018-12-18T03:07:51.015Z,-79
2018-12-18T03:08:51.005Z,-79
2018-12-18T03:09:50.990Z,-79
2018-12-18T03:10:50.980Z,-79
2018-12-18T03:11:50.991Z,-79
2018-12-18T03:12:51.119Z,-79
2018-12-18T03:13:51.012Z,-79
2018-12-18T03:14:50.961Z,-79
2018-12-18T03:15:50.937Z,-79
2018-12-18T03:16:51.075Z,-79
2018-12-18T03:17:51.045Z,-79
2018-12-18T03:18:51.003Z,-79
2018-12-18T03:19:50.959Z,-79
2018-12-18T03:20:50.955Z,-79
2018-12-18T03:21:51.023Z,-79
2018-12-18T03:22:50.984Z,-79
2018-12-18T03:23:51.040Z,-79
2018-12-18T03:24:50.971Z,-79
2018-12-18T03:25:50.967Z,-79
2018-12-18T03:26:51.316Z,-79
2018-12-18T03:27:51.103Z,-79
2018-12-18T03:28:51.273Z,-79
2018-12-18T03:29:51.836Z,-78
2018-12-18T03:30:51.299Z,-79
2018-12-18T03:31:51.492Z,-79
2018-12-18T03:32:51.018Z,-79
2018-12-18T03:33:51.243Z,-79
2018-12-18T03:34:51.060Z,-79
2018-12-18T03:35:51.059Z,-79
2018-12-18T03:36:51.237Z,-79
2018-12-18T03:37:50.970Z,-79
2018-12-18T03:38:51.261Z,-79
2018-12-18T03:39:51.008Z,-79
2018-12-18T03:40:50.931Z,-79
2018-12-18T03:41:51.297Z,-79
2018-12-18T03:42:51.303Z,-79
2018-12-18T03:43:51.215Z,-79
2018-12-18T03:44:51.110Z,-79
2018-12-18T03:45:51.129Z,-79
2018-12-18T03:46:51.145Z,-79
2018-12-18T03:47:50.958Z,-79
2018-12-18T03:48:50.884Z,-79
2018-12-18T03:49:51.033Z,-79
2018-12-18T03:50:51.324Z,-79
2018-12-18T03:51:50.885Z,-79
2018-12-18T03:52:51.118Z,-78
2018-12-18T03:53:51.173Z,-79
2018-12-18T03:54:50.900Z,-79
2018-12-18T03:55:50.978Z,-79
2018-12-18T03:56:51.109Z,-79
2018-12-18T03:57:51.014Z,-79
2018-12-18T03:58:51.147Z,-79
2018-12-18T03:59:51.199Z,-79
2018-12-18T04:00:51.702Z,-79
2018-12-18T04:01:50.929Z,-79
2018-12-18T04:02:51.138Z,-79
2018-12-18T04:03:51.122Z,-79
2018-12-18T04:04:51.045Z,-79
2018-12-18T04:05:51.238Z,-79
2018-12-18T04:06:51.236Z,-79
2018-12-18T04:07:50.882Z,-79
2018-12-18T04:08:50.871Z,-79
2018-12-18T04:09:51.282Z,-80
2018-12-18T04:10:51.241Z,-79
2018-12-18T04:11:50.992Z,-78
2018-12-18T04:12:50.947Z,-79
2018-12-18T04:13:50.936Z,-79
2018-12-18T04:14:50.937Z,-79
2018-12-18T04:15:50.899Z,-79
2018-12-18T04:16:50.906Z,-79
2018-12-18T04:17:50.881Z,-79
2018-12-18T04:18:50.835Z,-79
2018-12-18T04:19:50.913Z,-79
2018-12-18T04:20:51.221Z,-79
2018-12-18T04:21:51.236Z,-79
2018-12-18T04:22:51.060Z,-79
2018-12-18T04:23:51.064Z,-79
2018-12-18T04:24:50.870Z,-79
2018-12-18T04:25:50.838Z,-79
2018-12-18T04:26:50.927Z,-79
2018-12-18T04:27:51.069Z,-79
2018-12-18T04:28:51.074Z,-79
2018-12-18T04:29:50.911Z,-79
2018-12-18T04:30:50.896Z,-79
2018-12-18T04:31:50.966Z,-79
2018-12-18T04:32:50.855Z,-79
2018-12-18T04:33:51.280Z,-79
2018-12-18T04:34:50.997Z,-79
2018-12-18T04:35:50.833Z,-79
2018-12-18T04:36:51.308Z,-79
2018-12-18T04:37:50.883Z,-79
2018-12-18T04:38:51.028Z,-79
2018-12-18T04:39:50.827Z,-79
2018-12-18T04:40:51.074Z,-79
2018-12-18T04:41:50.838Z,-78
2018-12-18T04:42:50.883Z,-80
2018-12-18T04:43:50.874Z,-79
2018-12-18T04:44:50.845Z,-79
2018-12-18T04:45:50.903Z,-79
2018-12-18T04:46:50.863Z,-79
2018-12-18T04:47:50.824Z,-79
2018-12-18T04:48:50.980Z,-79
2018-12-18T04:49:50.852Z,-79
2018-12-18T04:50:50.958Z,-79
2018-12-18T04:51:50.928Z,-79
2018-12-18T04:52:50.924Z,-79
2018-12-18T04:53:50.960Z,-79
2018-12-18T04:54:50.831Z,-79
2018-12-18T04:55:50.942Z,-80
2018-12-18T04:56:50.996Z,-79
2018-12-18T04:57:50.924Z,-80
2018-12-18T04:58:50.947Z,-80
2018-12-18T04:59:50.873Z,-79
2018-12-18T05:00:50.792Z,-80
2018-12-18T05:01:51.168Z,-80
2018-12-18T05:02:50.917Z,-80
2018-12-18T05:03:50.996Z,-80
2018-12-18T05:04:51.129Z,-80
2018-12-18T05:05:51.085Z,-80
2018-12-18T05:06:50.961Z,-79
2018-12-18T05:07:51.107Z,-80
2018-12-18T05:08:50.977Z,-80
2018-12-18T05:09:50.793Z,-79
2018-12-18T05:10:50.814Z,-79
2018-12-18T05:11:50.997Z,-79
2018-12-18T05:12:51.233Z,-79
2018-12-18T05:13:50.911Z,-79
2018-12-18T05:14:51.007Z,-80
2018-12-18T05:15:50.759Z,-79
2018-12-18T05:16:50.998Z,-80
2018-12-18T05:17:50.798Z,-79
2018-12-18T05:18:50.795Z,-79
2018-12-18T05:19:51.146Z,-79
2018-12-18T05:20:50.965Z,-79
2018-12-18T05:21:51.580Z,-79
2018-12-18T05:22:50.902Z,-80
2018-12-18T05:23:50.876Z,-80
2018-12-18T05:24:50.949Z,-80
2018-12-18T05:25:51.185Z,-80
2018-12-18T05:26:50.765Z,-79
2018-12-18T05:27:50.766Z,-79
2018-12-18T05:28:51.011Z,-80
2018-12-18T05:29:50.875Z,-80
2018-12-18T05:30:50.556Z,-80
2018-12-18T05:31:50.903Z,-80
2018-12-18T05:32:50.882Z,-79
2018-12-18T05:33:50.924Z,-80
2018-12-18T05:35:50.748Z,-80
2018-12-18T05:36:51.624Z,-80
2018-12-18T05:37:50.936Z,-80
2018-12-18T05:38:51.030Z,-80
2018-12-18T05:39:51.115Z,-80
2018-12-18T05:40:51.177Z,-80
2018-12-18T05:41:50.913Z,-80
2018-12-18T05:42:50.940Z,-80
2018-12-18T05:43:50.898Z,-80
2018-12-18T05:44:50.874Z,-80
2018-12-18T05:45:50.920Z,-80
2018-12-18T05:46:50.765Z,-81
2018-12-18T05:47:50.862Z,-81
2018-12-18T05:48:51.558Z,-81
2018-12-18T05:49:51.006Z,-81
2018-12-18T05:50:50.859Z,-80
2018-12-18T05:51:50.919Z,-80
2018-12-18T05:52:50.860Z,-80
2018-12-18T05:53:50.834Z,-80
2018-12-18T05:54:50.805Z,-80
2018-12-18T05:55:50.880Z,-80
2018-12-18T05:56:50.786Z,-80
2018-12-18T05:57:50.704Z,-80
2018-12-18T05:58:51.529Z,-80
2018-12-18T05:59:51.158Z,-80
2018-12-18T06:00:50.733Z,-80
2018-12-18T06:01:51.285Z,-80
2018-12-18T06:02:50.763Z,-80
2018-12-18T06:03:50.990Z,-80
2018-12-18T06:04:50.758Z,-80
2018-12-18T06:05:51.286Z,-81
2018-12-18T06:06:50.922Z,-80
2018-12-18T06:07:50.739Z,-81
2018-12-18T06:08:50.710Z,-81
2018-12-18T06:09:50.889Z,-81
2018-12-18T06:10:50.847Z,-80
2018-12-18T06:11:50.956Z,-81
2018-12-18T06:12:51.081Z,-81
2018-12-18T06:13:50.764Z,-80
2018-12-18T06:14:50.804Z,-80
2018-12-18T06:15:50.676Z,-80
2018-12-18T06:16:50.869Z,-80
2018-12-18T06:17:50.670Z,-79
2018-12-18T06:18:50.664Z,-80
2018-12-18T06:19:50.825Z,-79
2018-12-18T06:20:51.078Z,-81
2018-12-18T06:21:50.682Z,-80
2018-12-18T06:22:50.656Z,-81
2018-12-18T06:23:51.381Z,-82
2018-12-18T06:24:50.654Z,-81
2018-12-18T06:25:50.660Z,-81
2018-12-18T06:26:50.637Z,-80
2018-12-18T06:27:50.756Z,-80
2018-12-18T06:28:50.750Z,-81
2018-12-18T06:29:50.637Z,-80
2018-12-18T06:30:50.785Z,-81
2018-12-18T06:31:50.696Z,-81
2018-12-18T06:32:50.875Z,-81
2018-12-18T06:33:50.674Z,-81
2018-12-18T06:34:50.681Z,-81
2018-12-18T06:35:50.997Z,-82
2018-12-18T06:36:50.921Z,-83
2018-12-18T06:37:50.815Z,-82
2018-12-18T06:38:50.935Z,-83
2018-12-18T06:39:51.486Z,-83
2018-12-18T06:40:50.805Z,-82
2018-12-18T06:41:50.693Z,-81
2018-12-18T06:42:50.646Z,-80
2018-12-18T06:43:50.712Z,-81
2018-12-18T06:44:50.651Z,-80
2018-12-18T06:45:50.793Z,-81
2018-12-18T06:46:50.747Z,-80
2018-12-18T06:47:50.688Z,-81
2018-12-18T06:48:51.018Z,-82
2018-12-18T06:49:50.737Z,-81
2018-12-18T06:50:50.775Z,-81
2018-12-18T06:51:51.484Z,-83
2018-12-18T06:52:50.715Z,-81
2018-12-18T06:53:50.695Z,-81
2018-12-18T06:54:51.075Z,-82
2018-12-18T06:55:50.619Z,-80
2018-12-18T06:56:50.770Z,-80
2018-12-18T06:57:50.793Z,-81
2018-12-18T06:58:50.626Z,-81
2018-12-18T06:59:50.750Z,-81
2018-12-18T07:00:50.914Z,-82
2018-12-18T07:01:50.684Z,-81
2018-12-18T07:02:50.996Z,-82
2018-12-18T07:03:50.717Z,-82
2018-12-18T07:04:50.861Z,-82
2018-12-18T07:05:50.949Z,-82
2018-12-18T07:06:50.963Z,-82
2018-12-18T07:07:57.956Z,-82
2018-12-18T07:08:50.619Z,-80
2018-12-18T07:09:50.857Z,-81
2018-12-18T07:10:51.369Z,-81
2018-12-18T07:11:50.956Z,-81
2018-12-18T07:12:50.620Z,-80
2018-12-18T07:13:50.867Z,-82
2018-12-18T07:14:50.725Z,-80
2018-12-18T07:15:50.628Z,-80
2018-12-18T07:16:50.893Z,-80
2018-12-18T07:17:50.808Z,-81
2018-12-18T07:18:50.872Z,-81
2018-12-18T07:19:51.063Z,-81
2018-12-18T07:20:50.647Z,-80
2018-12-18T07:21:50.912Z,-81
2018-12-18T07:22:50.627Z,-80
2018-12-18T07:23:50.979Z,-81
2018-12-18T07:24:50.593Z,-80
2018-12-18T07:25:50.596Z,-80
2018-12-18T07:26:50.826Z,-81
2018-12-18T07:27:50.705Z,-80
2018-12-18T07:28:50.767Z,-80
2018-12-18T07:29:50.709Z,-80
2018-12-18T07:30:50.635Z,-80
2018-12-18T07:31:50.866Z,-80
2018-12-18T07:32:50.710Z,-81
2018-12-18T07:33:50.617Z,-82
2018-12-18T07:34:50.857Z,-80
2018-12-18T07:35:50.794Z,-81
2018-12-18T07:36:51.674Z,-80
2018-12-18T07:37:50.740Z,-81
2018-12-18T07:38:50.613Z,-80
2018-12-18T07:39:50.654Z,-80
2018-12-18T07:40:50.783Z,-81
2018-12-18T07:41:50.756Z,-81
2018-12-18T07:42:50.534Z,-80
2018-12-18T07:43:50.614Z,-79
2018-12-18T07:44:50.776Z,-80
2018-12-18T07:45:50.612Z,-80
2018-12-18T07:46:50.810Z,-81
2018-12-18T07:47:50.727Z,-81
2018-12-18T07:48:50.615Z,-81
2018-12-18T07:49:50.611Z,-80
2018-12-18T07:50:50.580Z,-80
2018-12-18T07:51:50.683Z,-80
2018-12-18T07:52:50.563Z,-80
2018-12-18T07:53:50.688Z,-80
2018-12-18T07:54:51.053Z,-82
2018-12-18T07:55:50.717Z,-80
2018-12-18T07:56:50.772Z,-82
2018-12-18T07:57:50.559Z,-80
2018-12-18T07:58:50.501Z,-80
2018-12-18T07:59:50.537Z,-79
2018-12-18T08:00:50.669Z,-79
2018-12-18T08:01:50.532Z,-80
2018-12-18T08:02:50.645Z,-81
2018-12-18T08:03:50.723Z,-81
2018-12-18T08:04:50.553Z,-81
2018-12-18T08:05:50.532Z,-81
2018-12-18T08:06:50.591Z,-81
2018-12-18T08:07:50.541Z,-82
2018-12-18T08:08:50.573Z,-80
2018-12-18T08:09:50.663Z,-82
2018-12-18T08:10:50.724Z,-82
2018-12-18T08:11:50.571Z,-80
2018-12-18T08:12:50.628Z,-80
2018-12-18T08:13:50.927Z,-82
2018-12-18T08:14:50.626Z,-80
2018-12-18T08:15:51.383Z,-82
2018-12-18T08:16:50.610Z,-79
2018-12-18T08:17:50.727Z,-81
2018-12-18T08:18:50.553Z,-80
2018-12-18T08:19:50.660Z,-81
2018-12-18T08:20:50.662Z,-80
2018-12-18T08:21:50.736Z,-80
2018-12-18T08:22:50.855Z,-82
2018-12-18T08:23:50.781Z,-81
2018-12-18T08:24:50.826Z,-81
2018-12-18T08:25:50.526Z,-80
2018-12-18T08:26:50.553Z,-80
2018-12-18T08:27:50.482Z,-80
2018-12-18T08:28:50.888Z,-81
2018-12-18T08:29:50.673Z,-80
2018-12-18T08:30:50.598Z,-80
2018-12-18T08:31:50.732Z,-80
2018-12-18T08:32:50.598Z,-81
2018-12-18T08:33:50.758Z,-81
2018-12-18T08:34:50.480Z,-80
2018-12-18T08:35:50.543Z,-81
2018-12-18T08:36:50.466Z,-80
2018-12-18T08:37:50.510Z,-80
2018-12-18T08:38:51.295Z,-81
2018-12-18T08:39:50.859Z,-81
2018-12-18T08:40:50.579Z,-80
2018-12-18T08:41:50.692Z,-80
2018-12-18T08:42:50.749Z,-81
2018-12-18T08:43:50.618Z,-79
2018-12-18T08:44:50.575Z,-80
2018-12-18T08:45:50.549Z,-79
2018-12-18T08:46:50.774Z,-80
2018-12-18T08:47:50.614Z,-81
2018-12-18T08:48:50.485Z,-80
2018-12-18T08:49:50.560Z,-79
2018-12-18T08:50:51.316Z,-81
2018-12-18T08:51:50.695Z,-81
2018-12-18T08:52:50.507Z,-79
2018-12-18T08:53:51.300Z,-82
2018-12-18T08:54:50.476Z,-79
2018-12-18T08:55:50.485Z,-79
2018-12-18T08:56:50.509Z,-79
2018-12-18T08:57:50.669Z,-79
2018-12-18T08:58:50.671Z,-81
2018-12-18T08:59:51.297Z,-81
2018-12-18T09:00:50.564Z,-79
2018-12-18T09:01:50.450Z,-80
2018-12-18T09:02:50.647Z,-81
2018-12-18T09:03:50.686Z,-81
2018-12-18T09:04:50.472Z,-79
2018-12-18T09:05:50.486Z,-78
2018-12-18T09:06:50.508Z,-80
2018-12-18T09:07:50.775Z,-74
2018-12-18T09:08:50.732Z,-76
2018-12-18T09:09:50.585Z,-77
2018-12-18T09:10:50.401Z,-77
2018-12-18T09:11:50.780Z,-75
2018-12-18T09:12:50.699Z,-76
2018-12-18T09:13:50.506Z,-77
2018-12-18T09:14:50.432Z,-78
2018-12-18T09:15:50.438Z,-77
2018-12-18T09:16:50.647Z,-76
2018-12-18T09:17:50.613Z,-77
2018-12-18T09:18:50.413Z,-78
2018-12-18T09:19:50.477Z,-78
2018-12-18T09:20:50.427Z,-79
2018-12-18T09:21:51.214Z,-75
2018-12-18T09:22:50.630Z,-77
2018-12-18T09:23:51.291Z,-75
2018-12-18T09:24:51.019Z,-75
2018-12-18T09:25:50.455Z,-77
2018-12-18T09:26:50.880Z,-75
2018-12-18T09:27:50.719Z,-77
2018-12-18T09:28:50.475Z,-78
2018-12-18T09:29:50.413Z,-77
2018-12-18T09:30:50.414Z,-78
2018-12-18T09:31:50.471Z,-78
2018-12-18T09:32:50.428Z,-77
2018-12-18T09:33:50.640Z,-75
2018-12-18T09:34:50.527Z,-76
2018-12-18T09:35:50.463Z,-78
2018-12-18T09:36:50.397Z,-78
2018-12-18T09:37:50.788Z,-75
2018-12-18T09:38:50.513Z,-78
2018-12-18T09:39:50.679Z,-76
2018-12-18T09:40:50.499Z,-77
2018-12-18T09:41:50.431Z,-78
2018-12-18T09:42:50.413Z,-79
2018-12-18T09:43:50.754Z,-76
2018-12-18T09:44:50.417Z,-78
2018-12-18T09:45:50.520Z,-78
2018-12-18T09:46:51.393Z,-78
2018-12-18T09:47:50.359Z,-78
2018-12-18T09:48:50.427Z,-78
2018-12-18T09:49:50.411Z,-79
2018-12-18T09:50:50.498Z,-77
2018-12-18T09:51:50.624Z,-76
2018-12-18T09:52:50.484Z,-78
2018-12-18T09:53:50.440Z,-79
2018-12-18T09:54:50.458Z,-79
2018-12-18T09:55:50.465Z,-80
2018-12-18T09:56:50.543Z,-79
2018-12-18T09:57:50.392Z,-80
2018-12-18T09:58:50.474Z,-80
2018-12-18T09:59:50.527Z,-79
2018-12-18T10:00:50.670Z,-78
2018-12-18T10:01:51.074Z,-78
2018-12-18T10:02:50.943Z,-77
2018-12-18T10:03:50.371Z,-79
2018-12-18T10:04:50.508Z,-78
2018-12-18T10:05:56.766Z,-77
2018-12-18T10:06:50.719Z,-77
2018-12-18T10:07:50.496Z,-80
2018-12-18T10:08:50.661Z,-78
2018-12-18T10:09:50.747Z,-77
2018-12-18T10:10:50.472Z,-80
2018-12-18T10:11:50.509Z,-78
2018-12-18T10:12:50.374Z,-80
2018-12-18T10:13:50.484Z,-80
2018-12-18T10:14:50.670Z,-78
2018-12-18T10:15:50.562Z,-80
2018-12-18T10:16:50.423Z,-80
2018-12-18T10:17:50.743Z,-77
2018-12-18T10:18:50.912Z,-78
2018-12-18T10:19:50.384Z,-79
2018-12-18T10:20:50.391Z,-80
2018-12-18T10:21:50.585Z,-79
2018-12-18T10:22:50.481Z,-80
2018-12-18T10:23:50.384Z,-79
2018-12-18T10:24:50.441Z,-79
2018-12-18T10:25:51.151Z,-77
2018-12-18T10:26:50.648Z,-78
2018-12-18T10:27:50.496Z,-80
2018-12-18T10:28:50.570Z,-78
2018-12-18T10:29:50.446Z,-80
2018-12-18T10:30:50.394Z,-79
2018-12-18T10:31:50.488Z,-79
2018-12-18T10:32:50.426Z,-78
2018-12-18T10:33:50.448Z,-78
2018-12-18T10:34:50.345Z,-80
2018-12-18T10:35:51.191Z,-77
2018-12-18T10:36:50.336Z,-80
2018-12-18T10:37:50.365Z,-80
2018-12-18T10:38:50.401Z,-80
2018-12-18T10:39:50.733Z,-79
2018-12-18T10:40:50.560Z,-78
2018-12-18T10:41:50.355Z,-80
2018-12-18T10:42:50.367Z,-80
2018-12-18T10:43:50.723Z,-79
2018-12-18T10:44:50.361Z,-79
2018-12-18T10:45:50.422Z,-78
2018-12-18T10:46:50.371Z,-79
2018-12-18T10:47:50.431Z,-79
2018-12-18T10:48:50.819Z,-78
2018-12-18T10:49:51.149Z,-76
2018-12-18T10:50:50.569Z,-77
2018-12-18T10:51:50.422Z,-78
2018-12-18T10:52:51.172Z,-77
2018-12-18T10:53:50.405Z,-78
2018-12-18T10:54:50.486Z,-78
2018-12-18T10:55:50.326Z,-78
2018-12-18T10:56:50.303Z,-79
2018-12-18T10:57:50.353Z,-79
2018-12-18T10:58:50.896Z,-76
2018-12-18T10:59:50.660Z,-77
2018-12-18T11:00:50.352Z,-78
2018-12-18T11:01:51.152Z,-77
2018-12-18T11:02:50.655Z,-77
2018-12-18T11:03:50.599Z,-77
2018-12-18T11:04:50.306Z,-79
2018-12-18T11:05:50.433Z,-78
2018-12-18T11:06:50.415Z,-79
2018-12-18T11:07:50.388Z,-78
2018-12-18T11:08:50.381Z,-79
2018-12-18T11:09:50.284Z,-78
2018-12-18T11:10:50.434Z,-78
2018-12-18T11:11:50.327Z,-79
2018-12-18T11:12:50.323Z,-79
2018-12-18T11:13:50.278Z,-79
2018-12-18T11:14:50.352Z,-79
2018-12-18T11:15:50.339Z,-79
2018-12-18T11:16:50.411Z,-78
2018-12-18T11:17:50.329Z,-79
2018-12-18T11:18:50.349Z,-78
2018-12-18T11:19:50.304Z,-78
2018-12-18T11:20:50.297Z,-78
2018-12-18T11:21:50.293Z,-78
2018-12-18T11:22:50.290Z,-79
2018-12-18T11:23:50.490Z,-77
2018-12-18T11:24:50.332Z,-79
2018-12-18T11:25:50.574Z,-78
2018-12-18T11:26:50.533Z,-78
2018-12-18T11:27:50.414Z,-78
2018-12-18T11:28:50.698Z,-77
2018-12-18T11:29:50.514Z,-78
2018-12-18T11:30:50.390Z,-79
2018-12-18T11:31:50.517Z,-78
2018-12-18T11:32:50.798Z,-77
2018-12-18T11:33:50.580Z,-77
2018-12-18T11:34:50.372Z,-78
2018-12-18T11:35:50.424Z,-79
2018-12-18T11:36:50.481Z,-77
2018-12-18T11:37:51.090Z,-77
2018-12-18T11:38:50.613Z,-77
2018-12-18T11:39:50.401Z,-78
2018-12-18T11:40:50.753Z,-77
2018-12-18T11:41:50.726Z,-76
2018-12-18T11:42:50.345Z,-77
2018-12-18T11:43:50.307Z,-77
2018-12-18T11:44:50.298Z,-78
2018-12-18T11:45:50.311Z,-78
2018-12-18T11:46:50.518Z,-75
2018-12-18T11:47:50.661Z,-76
2018-12-18T11:48:50.843Z,-77
2018-12-18T11:49:50.367Z,-78
2018-12-18T11:50:50.313Z,-78
2018-12-18T11:51:50.486Z,-77
2018-12-18T11:52:50.625Z,-77
2018-12-18T11:53:50.354Z,-77
2018-12-18T11:54:53.603Z,-78
2018-12-18T11:55:50.244Z,-77
2018-12-18T11:56:50.311Z,-77
2018-12-18T11:57:50.634Z,-76
2018-12-18T11:58:50.536Z,-78
2018-12-18T11:59:50.307Z,-78
2018-12-18T12:00:50.356Z,-77
2018-12-18T12:01:50.220Z,-77
2018-12-18T12:02:50.316Z,-78
2018-12-18T12:03:50.477Z,-78
2018-12-18T12:04:50.242Z,-81
2018-12-18T12:05:50.388Z,-80
2018-12-18T12:06:50.485Z,-81
2018-12-18T12:07:50.265Z,-80
2018-12-18T12:08:50.617Z,-82
2018-12-18T12:09:50.381Z,-81
2018-12-18T12:10:50.340Z,-81
2018-12-18T12:11:50.312Z,-81
2018-12-18T12:12:50.565Z,-82
2018-12-18T12:13:50.305Z,-81
2018-12-18T12:14:50.277Z,-79
2018-12-18T12:15:50.306Z,-79
2018-12-18T12:16:50.313Z,-79
2018-12-18T12:17:50.304Z,-79
2018-12-18T12:18:50.651Z,-81
2018-12-18T12:19:50.776Z,-78
2018-12-18T12:20:50.567Z,-79
2018-12-18T12:21:50.294Z,-79
2018-12-18T12:22:50.584Z,-78
2018-12-18T12:23:50.357Z,-80
2018-12-18T12:24:50.490Z,-82
2018-12-18T12:25:50.377Z,-80
2018-12-18T12:26:50.266Z,-81
2018-12-18T12:27:50.392Z,-80
2018-12-18T12:28:50.206Z,-81
2018-12-18T12:29:50.896Z,-77
2018-12-18T12:30:50.402Z,-78
2018-12-18T12:31:50.246Z,-79
2018-12-18T12:32:50.722Z,-79
2018-12-18T12:33:50.563Z,-77
2018-12-18T12:34:50.356Z,-79
2018-12-18T12:35:50.980Z,-76
2018-12-18T12:36:50.620Z,-77
2018-12-18T12:37:50.439Z,-82
2018-12-18T12:38:50.414Z,-79
2018-12-18T12:39:50.262Z,-81
2018-12-18T12:40:50.300Z,-82
2018-12-18T12:41:50.417Z,-81
2018-12-18T12:42:50.429Z,-81
2018-12-18T12:43:50.178Z,-81
2018-12-18T12:44:50.738Z,-82
2018-12-18T12:45:50.454Z,-81
2018-12-18T12:46:50.420Z,-81
2018-12-18T12:47:50.518Z,-82
2018-12-18T12:48:50.204Z,-81
2018-12-18T12:49:50.541Z,-83
2018-12-18T12:50:50.378Z,-83
2018-12-18T12:51:50.211Z,-82
2018-12-18T12:52:50.522Z,-84
2018-12-18T12:53:50.321Z,-82
2018-12-18T12:54:50.397Z,-83
2018-12-18T12:55:50.404Z,-83
2018-12-18T12:56:50.374Z,-82
2018-12-18T12:57:50.215Z,-82
2018-12-18T12:58:50.221Z,-82
2018-12-18T12:59:50.418Z,-82
2018-12-18T13:00:50.197Z,-83
2018-12-18T13:01:50.246Z,-82
2018-12-18T13:02:50.236Z,-83
2018-12-18T13:03:50.431Z,-83
2018-12-18T13:04:50.310Z,-83
2018-12-18T13:05:50.257Z,-82
2018-12-18T13:06:50.261Z,-82
2018-12-18T13:07:50.503Z,-83
2018-12-18T13:08:50.189Z,-82
2018-12-18T13:09:50.184Z,-82
2018-12-18T13:10:50.535Z,-82
2018-12-18T13:11:50.346Z,-82
2018-12-18T13:12:50.278Z,-82
2018-12-18T13:13:50.432Z,-82
2018-12-18T13:14:50.494Z,-82
2018-12-18T13:15:50.996Z,-82
2018-12-18T13:16:50.420Z,-82
2018-12-18T13:17:50.228Z,-82
2018-12-18T13:18:50.213Z,-82
2018-12-18T13:19:50.189Z,-83
2018-12-18T13:20:50.237Z,-82
2018-12-18T13:21:50.203Z,-82
2018-12-18T13:22:50.176Z,-83
2018-12-18T13:23:50.203Z,-83
2018-12-18T13:24:50.126Z,-82
2018-12-18T13:25:50.121Z,-83
2018-12-18T13:26:50.148Z,-82
2018-12-18T13:27:50.229Z,-82
2018-12-18T13:28:50.273Z,-83
2018-12-18T13:29:50.226Z,-83
2018-12-18T13:30:50.219Z,-84
2018-12-18T13:31:50.103Z,-83
2018-12-18T13:32:50.237Z,-84
2018-12-18T13:33:50.236Z,-83
2018-12-18T13:34:50.120Z,-83
2018-12-18T13:35:50.970Z,-83
2018-12-18T13:36:50.735Z,-82
2018-12-18T13:37:50.347Z,-82
2018-12-18T13:38:50.378Z,-82
2018-12-18T13:39:50.194Z,-82
2018-12-18T13:40:50.231Z,-82
2018-12-18T13:41:50.281Z,-82
2018-12-18T13:42:50.428Z,-82
2018-12-18T13:43:50.367Z,-82
2018-12-18T13:44:50.199Z,-81
2018-12-18T13:45:50.253Z,-82
2018-12-18T13:46:50.248Z,-81
2018-12-18T13:47:50.585Z,-82